sensor_id;sensor_type;location;lat;lon;timestamp;pressure;altitude;pressure_sealevel;temperature;humidity
45872;BME280;32333;55.844;-3.210;2023-07-20T00:01:49;99514.34;;;14.93;100.00
45872;BME280;32333;55.844;-3.210;2023-07-20T00:04:17;99514.59;;;15.05;100.00
45872;BME280;32333;55.844;-3.210;2023-07-20T00:06:46;99517.60;;;12.38;100.00
45872;BME280;32333;55.844;-3.210;2023-07-20T00:09:13;99519.30;;;13.50;100.00
45872;BME280;32333;55.844;-3.210;2023-07-20T00:11:47;99520.33;;;14.01;100.00
45872;BME280;32333;55.844;-3.210;2023-07-20T00:14:35;99519.76;;;15.38;100.00
45872;BME280;32333;55.844;-3.210;2023-07-20T00:17:03;99520.57;;;14.53;100.00
45872;BME280;32333;55.844;-3.210;2023-07-20T00:19:30;99515.56;;;12.43;100.00
45872;BME280;32333;55.844;-3.210;2023-07-20T00:21:58;99522.14;;;14.87;100.00
45872;BME280;32333;55.844;-3.210;2023-07-20T00:24:25;99522.37;;;15.08;100.00
45872;BME280;32333;55.844;-3.210;2023-07-20T00:26:53;99519.57;;;14.25;100.00
45872;BME280;32333;55.844;-3.210;2023-07-20T00:29:20;99522.40;;;14.24;100.00
45872;BME280;32333;55.844;-3.210;2023-07-20T00:31:48;99525.38;;;14.75;100.00
45872;BME280;32333;55.844;-3.210;2023-07-20T00:34:15;99523.03;;;14.12;100.00
45872;BME280;32333;55.844;-3.210;2023-07-20T00:36:42;99527.26;;;14.86;100.00
45872;BME280;32333;55.844;-3.210;2023-07-20T00:39:11;99523.98;;;14.19;100.00
45872;BME280;32333;55.844;-3.210;2023-07-20T00:41:39;99526.60;;;14.79;100.00
45872;BME280;32333;55.844;-3.210;2023-07-20T00:44:35;99527.18;;;13.88;100.00
45872;BME280;32333;55.844;-3.210;2023-07-20T00:47:02;99517.97;;;13.23;100.00
45872;BME280;32333;55.844;-3.210;2023-07-20T00:49:30;99518.24;;;13.36;100.00
45872;BME280;32333;55.844;-3.210;2023-07-20T00:52:00;99519.37;;;14.26;100.00
45872;BME280;32333;55.844;-3.210;2023-07-20T00:54:28;99516.86;;;13.11;100.00
45872;BME280;32333;55.844;-3.210;2023-07-20T00:56:59;99517.07;;;14.84;100.00
45872;BME280;32333;55.844;-3.210;2023-07-20T00:59:28;99513.10;;;13.19;100.00
45872;BME280;32333;55.844;-3.210;2023-07-20T01:01:57;99511.64;;;13.88;100.00
45872;BME280;32333;55.844;-3.210;2023-07-20T01:04:25;99504.70;;;14.08;100.00
45872;BME280;32333;55.844;-3.210;2023-07-20T01:06:58;99504.12;;;13.35;100.00
45872;BME280;32333;55.844;-3.210;2023-07-20T01:09:31;99501.98;;;13.58;100.00
45872;BME280;32333;55.844;-3.210;2023-07-20T01:14:35;99499.58;;;14.02;100.00
45872;BME280;32333;55.844;-3.210;2023-07-20T01:17:04;99502.01;;;14.86;100.00
45872;BME280;32333;55.844;-3.210;2023-07-20T01:19:32;99499.65;;;14.71;100.00
45872;BME280;32333;55.844;-3.210;2023-07-20T01:22:03;99496.79;;;14.37;100.00
45872;BME280;32333;55.844;-3.210;2023-07-20T01:24:49;99496.92;;;14.29;100.00
45872;BME280;32333;55.844;-3.210;2023-07-20T01:28:18;99502.38;;;12.72;100.00
45872;BME280;32333;55.844;-3.210;2023-07-20T01:30:59;99503.07;;;13.30;100.00
45872;BME280;32333;55.844;-3.210;2023-07-20T01:33:32;99502.71;;;13.20;100.00
45872;BME280;32333;55.844;-3.210;2023-07-20T01:36:01;99503.03;;;11.94;100.00
45872;BME280;32333;55.844;-3.210;2023-07-20T01:38:30;99503.63;;;12.91;100.00
45872;BME280;32333;55.844;-3.210;2023-07-20T01:40:58;99505.51;;;11.91;100.00
45872;BME280;32333;55.844;-3.210;2023-07-20T01:44:38;99504.24;;;11.17;100.00
45872;BME280;32333;55.844;-3.210;2023-07-20T01:47:06;99504.77;;;11.56;100.00
45872;BME280;32333;55.844;-3.210;2023-07-20T01:49:35;99507.51;;;12.88;100.00
45872;BME280;32333;55.844;-3.210;2023-07-20T01:52:03;99509.99;;;11.97;100.00
45872;BME280;32333;55.844;-3.210;2023-07-20T01:54:31;99511.18;;;12.10;100.00
45872;BME280;32333;55.844;-3.210;2023-07-20T01:57:00;99507.69;;;12.02;100.00
45872;BME280;32333;55.844;-3.210;2023-07-20T01:59:28;99510.42;;;11.58;100.00
45872;BME280;32333;55.844;-3.210;2023-07-20T02:01:56;99509.40;;;11.69;100.00
45872;BME280;32333;55.844;-3.210;2023-07-20T02:04:24;99504.03;;;11.88;100.00
45872;BME280;32333;55.844;-3.210;2023-07-20T02:06:51;99509.95;;;11.56;100.00
45872;BME280;32333;55.844;-3.210;2023-07-20T02:09:20;99514.28;;;10.65;100.00
45872;BME280;32333;55.844;-3.210;2023-07-20T02:11:48;99513.64;;;10.67;100.00
45872;BME280;32333;55.844;-3.210;2023-07-20T02:14:36;99513.61;;;10.81;100.00
45872;BME280;32333;55.844;-3.210;2023-07-20T02:17:05;99509.15;;;11.69;100.00
45872;BME280;32333;55.844;-3.210;2023-07-20T02:19:34;99504.67;;;12.26;100.00
45872;BME280;32333;55.844;-3.210;2023-07-20T02:22:02;99504.49;;;11.45;100.00
45872;BME280;32333;55.844;-3.210;2023-07-20T02:24:29;99501.41;;;11.99;100.00
45872;BME280;32333;55.844;-3.210;2023-07-20T02:26:57;99500.84;;;11.31;100.00
45872;BME280;32333;55.844;-3.210;2023-07-20T02:29:25;99501.70;;;10.98;100.00
45872;BME280;32333;55.844;-3.210;2023-07-20T02:31:54;99499.42;;;11.54;100.00
45872;BME280;32333;55.844;-3.210;2023-07-20T02:34:22;99499.27;;;10.87;100.00
45872;BME280;32333;55.844;-3.210;2023-07-20T02:36:52;99494.40;;;11.07;100.00
45872;BME280;32333;55.844;-3.210;2023-07-20T02:39:22;99489.16;;;11.35;100.00
45872;BME280;32333;55.844;-3.210;2023-07-20T02:41:49;99487.78;;;11.27;100.00
45872;BME280;32333;55.844;-3.210;2023-07-20T02:44:35;99485.33;;;11.72;100.00
45872;BME280;32333;55.844;-3.210;2023-07-20T02:47:03;99484.37;;;11.57;100.00
45872;BME280;32333;55.844;-3.210;2023-07-20T02:49:30;99482.92;;;11.38;100.00
45872;BME280;32333;55.844;-3.210;2023-07-20T02:51:59;99483.76;;;10.97;100.00
45872;BME280;32333;55.844;-3.210;2023-07-20T02:54:28;99483.15;;;11.50;100.00
45872;BME280;32333;55.844;-3.210;2023-07-20T02:56:58;99484.84;;;10.94;100.00
45872;BME280;32333;55.844;-3.210;2023-07-20T02:59:25;99489.66;;;10.67;100.00
45872;BME280;32333;55.844;-3.210;2023-07-20T03:01:52;99491.77;;;9.36;100.00
45872;BME280;32333;55.844;-3.210;2023-07-20T03:04:22;99495.66;;;10.22;100.00
45872;BME280;32333;55.844;-3.210;2023-07-20T03:06:49;99492.66;;;10.56;100.00
45872;BME280;32333;55.844;-3.210;2023-07-20T03:09:17;99495.20;;;9.61;100.00
45872;BME280;32333;55.844;-3.210;2023-07-20T03:11:46;99496.67;;;10.01;100.00
45872;BME280;32333;55.844;-3.210;2023-07-20T03:14:38;99495.85;;;9.80;100.00
45872;BME280;32333;55.844;-3.210;2023-07-20T03:17:05;99493.35;;;10.24;100.00
45872;BME280;32333;55.844;-3.210;2023-07-20T03:19:34;99492.64;;;10.68;100.00
45872;BME280;32333;55.844;-3.210;2023-07-20T03:22:02;99497.18;;;10.17;100.00
45872;BME280;32333;55.844;-3.210;2023-07-20T03:24:29;99495.23;;;10.34;100.00
45872;BME280;32333;55.844;-3.210;2023-07-20T03:26:56;99499.05;;;9.78;100.00
45872;BME280;32333;55.844;-3.210;2023-07-20T03:29:24;99502.16;;;9.83;100.00
45872;BME280;32333;55.844;-3.210;2023-07-20T03:31:51;99497.62;;;9.29;100.00
45872;BME280;32333;55.844;-3.210;2023-07-20T03:34:18;99499.99;;;9.98;100.00
45872;BME280;32333;55.844;-3.210;2023-07-20T03:36:47;99499.04;;;9.25;100.00
45872;BME280;32333;55.844;-3.210;2023-07-20T03:39:14;99500.81;;;8.87;100.00
45872;BME280;32333;55.844;-3.210;2023-07-20T03:41:42;99499.51;;;10.06;100.00
45872;BME280;32333;55.844;-3.210;2023-07-20T03:44:36;99499.93;;;9.89;100.00
45872;BME280;32333;55.844;-3.210;2023-07-20T03:47:03;99501.47;;;9.62;100.00
45872;BME280;32333;55.844;-3.210;2023-07-20T03:49:31;99498.65;;;10.14;100.00
45872;BME280;32333;55.844;-3.210;2023-07-20T03:52:00;99495.13;;;9.71;100.00
45872;BME280;32333;55.844;-3.210;2023-07-20T03:54:28;99496.62;;;10.00;100.00
45872;BME280;32333;55.844;-3.210;2023-07-20T03:56:55;99496.27;;;9.74;100.00
45872;BME280;32333;55.844;-3.210;2023-07-20T03:59:24;99495.13;;;9.26;100.00
45872;BME280;32333;55.844;-3.210;2023-07-20T04:01:51;99491.36;;;8.74;100.00
45872;BME280;32333;55.844;-3.210;2023-07-20T04:04:18;99489.04;;;9.03;100.00
45872;BME280;32333;55.844;-3.210;2023-07-20T04:06:47;99487.73;;;9.13;100.00
45872;BME280;32333;55.844;-3.210;2023-07-20T04:09:14;99487.99;;;9.98;100.00
45872;BME280;32333;55.844;-3.210;2023-07-20T04:11:42;99485.33;;;9.55;100.00
45872;BME280;32333;55.844;-3.210;2023-07-20T04:14:35;99483.84;;;9.74;100.00
45872;BME280;32333;55.844;-3.210;2023-07-20T04:17:03;99485.25;;;8.81;100.00
45872;BME280;32333;55.844;-3.210;2023-07-20T04:19:31;99487.90;;;9.42;100.00
45872;BME280;32333;55.844;-3.210;2023-07-20T04:21:59;99487.26;;;10.33;100.00
45872;BME280;32333;55.844;-3.210;2023-07-20T04:24:27;99487.31;;;9.97;100.00
45872;BME280;32333;55.844;-3.210;2023-07-20T04:26:55;99483.42;;;9.00;100.00
45872;BME280;32333;55.844;-3.210;2023-07-20T04:29:24;99487.37;;;9.33;100.00
45872;BME280;32333;55.844;-3.210;2023-07-20T04:31:52;99484.94;;;9.01;100.00
45872;BME280;32333;55.844;-3.210;2023-07-20T04:34:20;99488.72;;;9.26;100.00
45872;BME280;32333;55.844;-3.210;2023-07-20T04:36:47;99491.64;;;9.94;100.00
45872;BME280;32333;55.844;-3.210;2023-07-20T04:39:16;99488.52;;;9.32;100.00
45872;BME280;32333;55.844;-3.210;2023-07-20T04:41:44;99486.80;;;9.58;100.00
45872;BME280;32333;55.844;-3.210;2023-07-20T04:44:35;99485.74;;;9.17;100.00
45872;BME280;32333;55.844;-3.210;2023-07-20T04:47:03;99481.54;;;9.33;100.00
45872;BME280;32333;55.844;-3.210;2023-07-20T04:49:31;99482.75;;;9.23;100.00
45872;BME280;32333;55.844;-3.210;2023-07-20T04:51:59;99484.67;;;10.23;100.00
45872;BME280;32333;55.844;-3.210;2023-07-20T04:54:27;99482.14;;;9.97;100.00
45872;BME280;32333;55.844;-3.210;2023-07-20T04:56:54;99477.15;;;9.01;100.00
45872;BME280;32333;55.844;-3.210;2023-07-20T04:59:23;99477.89;;;10.31;100.00
45872;BME280;32333;55.844;-3.210;2023-07-20T05:01:52;99478.16;;;9.82;100.00
45872;BME280;32333;55.844;-3.210;2023-07-20T05:04:43;99470.69;;;11.20;100.00
45872;BME280;32333;55.844;-3.210;2023-07-20T05:07:10;99472.45;;;10.83;100.00
45872;BME280;32333;55.844;-3.210;2023-07-20T05:09:38;99473.86;;;9.92;100.00
45872;BME280;32333;55.844;-3.210;2023-07-20T05:14:35;99470.88;;;10.35;100.00
45872;BME280;32333;55.844;-3.210;2023-07-20T05:17:03;99468.73;;;10.15;100.00
45872;BME280;32333;55.844;-3.210;2023-07-20T05:19:31;99470.02;;;9.93;100.00
45872;BME280;32333;55.844;-3.210;2023-07-20T05:21:59;99469.45;;;10.68;100.00
45872;BME280;32333;55.844;-3.210;2023-07-20T05:24:26;99463.51;;;11.48;100.00
45872;BME280;32333;55.844;-3.210;2023-07-20T05:26:53;99465.24;;;10.99;100.00
45872;BME280;32333;55.844;-3.210;2023-07-20T05:29:23;99465.34;;;11.02;100.00
45872;BME280;32333;55.844;-3.210;2023-07-20T05:31:51;99466.96;;;10.79;100.00
45872;BME280;32333;55.844;-3.210;2023-07-20T05:34:18;99461.92;;;11.20;100.00
45872;BME280;32333;55.844;-3.210;2023-07-20T05:36:47;99459.25;;;11.17;100.00
45872;BME280;32333;55.844;-3.210;2023-07-20T05:39:14;99454.60;;;10.77;100.00
45872;BME280;32333;55.844;-3.210;2023-07-20T05:41:42;99450.84;;;11.52;100.00
45872;BME280;32333;55.844;-3.210;2023-07-20T05:44:35;99449.09;;;11.85;100.00
45872;BME280;32333;55.844;-3.210;2023-07-20T05:47:03;99446.79;;;12.51;100.00
45872;BME280;32333;55.844;-3.210;2023-07-20T05:49:31;99449.96;;;12.30;100.00
45872;BME280;32333;55.844;-3.210;2023-07-20T05:51:59;99449.91;;;11.89;100.00
45872;BME280;32333;55.844;-3.210;2023-07-20T05:54:27;99458.41;;;9.83;100.00
45872;BME280;32333;55.844;-3.210;2023-07-20T05:56:54;99456.34;;;11.41;100.00
45872;BME280;32333;55.844;-3.210;2023-07-20T05:59:23;99456.49;;;11.10;100.00
45872;BME280;32333;55.844;-3.210;2023-07-20T06:01:51;99461.46;;;10.43;100.00
45872;BME280;32333;55.844;-3.210;2023-07-20T06:04:18;99455.55;;;11.42;100.00
45872;BME280;32333;55.844;-3.210;2023-07-20T06:06:46;99454.41;;;11.44;100.00
45872;BME280;32333;55.844;-3.210;2023-07-20T06:09:14;99457.64;;;11.23;100.00
45872;BME280;32333;55.844;-3.210;2023-07-20T06:11:41;99459.17;;;11.41;100.00
45872;BME280;32333;55.844;-3.210;2023-07-20T06:14:35;99461.23;;;11.34;100.00
45872;BME280;32333;55.844;-3.210;2023-07-20T06:17:03;99459.42;;;11.86;100.00
45872;BME280;32333;55.844;-3.210;2023-07-20T06:19:30;99460.79;;;11.31;100.00
45872;BME280;32333;55.844;-3.210;2023-07-20T06:21:59;99462.47;;;11.55;100.00
45872;BME280;32333;55.844;-3.210;2023-07-20T06:24:26;99467.18;;;10.74;100.00
45872;BME280;32333;55.844;-3.210;2023-07-20T06:26:54;99463.06;;;11.08;100.00
45872;BME280;32333;55.844;-3.210;2023-07-20T06:29:23;99467.06;;;11.32;100.00
45872;BME280;32333;55.844;-3.210;2023-07-20T06:31:51;99465.57;;;11.18;100.00
45872;BME280;32333;55.844;-3.210;2023-07-20T06:34:18;99464.89;;;12.02;100.00
45872;BME280;32333;55.844;-3.210;2023-07-20T06:36:46;99468.22;;;10.96;100.00
45872;BME280;32333;55.844;-3.210;2023-07-20T06:39:13;99463.98;;;11.66;100.00
45872;BME280;32333;55.844;-3.210;2023-07-20T06:41:41;99463.93;;;12.27;100.00
45872;BME280;32333;55.844;-3.210;2023-07-20T06:44:35;99462.31;;;12.56;100.00
45872;BME280;32333;55.844;-3.210;2023-07-20T06:47:04;99464.04;;;11.46;100.00
45872;BME280;32333;55.844;-3.210;2023-07-20T06:49:32;99467.56;;;11.45;100.00
45872;BME280;32333;55.844;-3.210;2023-07-20T06:52:03;99462.31;;;12.43;100.00
45872;BME280;32333;55.844;-3.210;2023-07-20T06:54:32;99464.98;;;12.67;100.00
45872;BME280;32333;55.844;-3.210;2023-07-20T06:57:00;99467.82;;;12.02;100.00
45872;BME280;32333;55.844;-3.210;2023-07-20T06:59:27;99469.95;;;12.24;100.00
45872;BME280;32333;55.844;-3.210;2023-07-20T07:01:56;99470.22;;;13.30;100.00
45872;BME280;32333;55.844;-3.210;2023-07-20T07:04:25;99470.16;;;11.61;100.00
45872;BME280;32333;55.844;-3.210;2023-07-20T07:06:52;99465.10;;;12.12;100.00
45872;BME280;32333;55.844;-3.210;2023-07-20T07:09:20;99466.76;;;12.76;100.00
45872;BME280;32333;55.844;-3.210;2023-07-20T07:11:48;99466.73;;;12.58;100.00
45872;BME280;32333;55.844;-3.210;2023-07-20T07:14:42;99465.53;;;12.75;100.00
45872;BME280;32333;55.844;-3.210;2023-07-20T07:17:11;99462.03;;;13.60;100.00
45872;BME280;32333;55.844;-3.210;2023-07-20T07:19:38;99458.38;;;12.87;100.00
45872;BME280;32333;55.844;-3.210;2023-07-20T07:22:05;99459.55;;;12.30;100.00
45872;BME280;32333;55.844;-3.210;2023-07-20T07:24:33;99461.34;;;11.36;100.00
45872;BME280;32333;55.844;-3.210;2023-07-20T07:30:05;99460.91;;;13.10;100.00
45872;BME280;32333;55.844;-3.210;2023-07-20T07:32:33;99458.50;;;13.67;100.00
45872;BME280;32333;55.844;-3.210;2023-07-20T07:35:00;99456.16;;;12.83;100.00
45872;BME280;32333;55.844;-3.210;2023-07-20T07:37:28;99458.57;;;13.26;100.00
45872;BME280;32333;55.844;-3.210;2023-07-20T07:39:56;99454.31;;;13.76;100.00
45872;BME280;32333;55.844;-3.210;2023-07-20T07:44:36;99459.86;;;13.23;100.00
45872;BME280;32333;55.844;-3.210;2023-07-20T07:47:05;99459.23;;;14.30;100.00
45872;BME280;32333;55.844;-3.210;2023-07-20T07:49:33;99459.86;;;14.33;100.00
45872;BME280;32333;55.844;-3.210;2023-07-20T07:52:01;99457.55;;;15.08;99.00
45872;BME280;32333;55.844;-3.210;2023-07-20T07:54:28;99455.93;;;14.57;98.13
45872;BME280;32333;55.844;-3.210;2023-07-20T07:56:58;99457.28;;;15.12;97.82
45872;BME280;32333;55.844;-3.210;2023-07-20T07:59:26;99455.73;;;15.17;95.75
45872;BME280;32333;55.844;-3.210;2023-07-20T08:01:53;99454.97;;;15.02;98.04
45872;BME280;32333;55.844;-3.210;2023-07-20T08:04:38;99452.40;;;15.98;92.79
45872;BME280;32333;55.844;-3.210;2023-07-20T08:07:06;99450.00;;;15.74;91.47
45872;BME280;32333;55.844;-3.210;2023-07-20T08:09:34;99454.46;;;14.71;96.13
45872;BME280;32333;55.844;-3.210;2023-07-20T08:14:41;99446.72;;;16.08;89.53
45872;BME280;32333;55.844;-3.210;2023-07-20T08:17:10;99446.51;;;15.98;88.47
45872;BME280;32333;55.844;-3.210;2023-07-20T08:19:40;99441.65;;;17.92;78.97
45872;BME280;32333;55.844;-3.210;2023-07-20T08:22:10;99446.75;;;16.32;83.94
45872;BME280;32333;55.844;-3.210;2023-07-20T08:24:41;99441.97;;;17.95;73.32
45872;BME280;32333;55.844;-3.210;2023-07-20T08:27:22;99444.25;;;16.93;77.54
45872;BME280;32333;55.844;-3.210;2023-07-20T08:29:54;99444.95;;;17.59;70.97
45872;BME280;32333;55.844;-3.210;2023-07-20T08:32:24;99447.88;;;17.42;69.87
45872;BME280;32333;55.844;-3.210;2023-07-20T08:34:52;99446.98;;;17.45;70.09
45872;BME280;32333;55.844;-3.210;2023-07-20T08:37:20;99449.24;;;18.22;69.29
45872;BME280;32333;55.844;-3.210;2023-07-20T08:39:48;99448.92;;;19.21;67.34
45872;BME280;32333;55.844;-3.210;2023-07-20T08:44:37;99453.93;;;18.38;69.61
45872;BME280;32333;55.844;-3.210;2023-07-20T08:47:06;99455.03;;;17.12;75.76
45872;BME280;32333;55.844;-3.210;2023-07-20T08:49:35;99455.51;;;17.89;70.49
45872;BME280;32333;55.844;-3.210;2023-07-20T08:52:04;99456.19;;;18.50;72.81
45872;BME280;32333;55.844;-3.210;2023-07-20T08:54:34;99458.34;;;17.35;77.35
45872;BME280;32333;55.844;-3.210;2023-07-20T08:57:07;99462.41;;;18.57;69.32
45872;BME280;32333;55.844;-3.210;2023-07-20T08:59:47;99460.82;;;18.00;70.47
45872;BME280;32333;55.844;-3.210;2023-07-20T09:02:19;99460.81;;;17.69;70.70
45872;BME280;32333;55.844;-3.210;2023-07-20T09:04:52;99459.24;;;17.94;67.74
45872;BME280;32333;55.844;-3.210;2023-07-20T09:07:26;99459.32;;;18.69;68.38
45872;BME280;32333;55.844;-3.210;2023-07-20T09:09:57;99455.32;;;19.33;67.10
45872;BME280;32333;55.844;-3.210;2023-07-20T09:14:37;99453.89;;;19.29;67.00
45872;BME280;32333;55.844;-3.210;2023-07-20T09:17:05;99448.76;;;21.05;59.04
45872;BME280;32333;55.844;-3.210;2023-07-20T09:19:34;99447.55;;;19.79;59.17
45872;BME280;32333;55.844;-3.210;2023-07-20T09:22:02;99446.95;;;20.33;59.35
45872;BME280;32333;55.844;-3.210;2023-07-20T09:24:54;99447.39;;;19.62;59.70
45872;BME280;32333;55.844;-3.210;2023-07-20T09:27:23;99450.33;;;18.68;60.92
45872;BME280;32333;55.844;-3.210;2023-07-20T09:29:58;99448.74;;;18.88;60.52
45872;BME280;32333;55.844;-3.210;2023-07-20T09:32:25;99452.60;;;18.05;64.37
45872;BME280;32333;55.844;-3.210;2023-07-20T09:34:54;99451.60;;;19.32;61.37
45872;BME280;32333;55.844;-3.210;2023-07-20T09:37:24;99448.50;;;18.71;65.00
45872;BME280;32333;55.844;-3.210;2023-07-20T09:39:52;99446.90;;;17.73;64.84
45872;BME280;32333;55.844;-3.210;2023-07-20T09:44:38;99443.52;;;19.27;62.22
45872;BME280;32333;55.844;-3.210;2023-07-20T09:47:09;99442.04;;;20.12;58.94
45872;BME280;32333;55.844;-3.210;2023-07-20T09:49:47;99445.20;;;19.08;62.43
45872;BME280;32333;55.844;-3.210;2023-07-20T09:54:38;99440.00;;;20.38;59.70
45872;BME280;32333;55.844;-3.210;2023-07-20T09:57:11;99436.13;;;19.74;54.47
45872;BME280;32333;55.844;-3.210;2023-07-20T09:59:41;99433.44;;;19.87;50.62
45872;BME280;32333;55.844;-3.210;2023-07-20T10:02:16;99435.55;;;20.01;53.26
45872;BME280;32333;55.844;-3.210;2023-07-20T10:04:54;99437.71;;;19.12;58.63
45872;BME280;32333;55.844;-3.210;2023-07-20T10:08:12;99431.99;;;20.00;56.25
45872;BME280;32333;55.844;-3.210;2023-07-20T10:10:42;99430.02;;;20.08;57.21
45872;BME280;32333;55.844;-3.210;2023-07-20T10:15:02;99431.99;;;19.97;54.56
45872;BME280;32333;55.844;-3.210;2023-07-20T10:17:35;99428.69;;;20.90;50.97
45872;BME280;32333;55.844;-3.210;2023-07-20T10:20:11;99421.23;;;20.14;53.46
45872;BME280;32333;55.844;-3.210;2023-07-20T10:22:39;99426.83;;;20.77;52.08
45872;BME280;32333;55.844;-3.210;2023-07-20T10:25:07;99426.86;;;20.05;54.17
45872;BME280;32333;55.844;-3.210;2023-07-20T10:27:35;99431.55;;;19.88;55.67
45872;BME280;32333;55.844;-3.210;2023-07-20T10:30:06;99428.35;;;19.53;51.23
45872;BME280;32333;55.844;-3.210;2023-07-20T10:32:33;99426.25;;;19.44;50.15
45872;BME280;32333;55.844;-3.210;2023-07-20T10:35:13;99420.72;;;19.98;51.86
45872;BME280;32333;55.844;-3.210;2023-07-20T10:37:52;99411.83;;;20.27;49.35
45872;BME280;32333;55.844;-3.210;2023-07-20T10:40:38;99421.72;;;19.41;53.61
45872;BME280;32333;55.844;-3.210;2023-07-20T10:46:16;99416.49;;;20.45;52.20
45872;BME280;32333;55.844;-3.210;2023-07-20T10:49:03;99416.73;;;19.81;55.02
45872;BME280;32333;55.844;-3.210;2023-07-20T10:51:40;99416.27;;;20.40;53.69
45872;BME280;32333;55.844;-3.210;2023-07-20T10:54:09;99418.26;;;19.22;59.79
45872;BME280;32333;55.844;-3.210;2023-07-20T10:56:39;99412.94;;;19.74;55.30
45872;BME280;32333;55.844;-3.210;2023-07-20T10:59:18;99409.66;;;19.23;58.06
45872;BME280;32333;55.844;-3.210;2023-07-20T11:01:47;99406.94;;;19.25;56.86
45872;BME280;32333;55.844;-3.210;2023-07-20T11:04:15;99399.76;;;19.84;56.81
45872;BME280;32333;55.844;-3.210;2023-07-20T11:06:44;99406.99;;;19.54;54.28
45872;BME280;32333;55.844;-3.210;2023-07-20T11:25:41;99399.30;;;20.26;52.43
45872;BME280;32333;55.844;-3.210;2023-07-20T11:28:13;99403.87;;;18.46;58.34
45872;BME280;32333;55.844;-3.210;2023-07-20T11:30:41;99399.38;;;19.50;55.20
45872;BME280;32333;55.844;-3.210;2023-07-20T11:33:12;99394.42;;;19.85;56.30
45872;BME280;32333;55.844;-3.210;2023-07-20T11:35:49;99395.50;;;19.99;56.28
45872;BME280;32333;55.844;-3.210;2023-07-20T11:38:17;99392.19;;;19.40;57.24
45872;BME280;32333;55.844;-3.210;2023-07-20T11:40:46;99395.12;;;18.53;59.48
45872;BME280;32333;55.844;-3.210;2023-07-20T11:44:37;99391.52;;;19.37;59.09
45872;BME280;32333;55.844;-3.210;2023-07-20T11:47:07;99385.53;;;20.05;56.06
45872;BME280;32333;55.844;-3.210;2023-07-20T11:49:35;99393.61;;;18.11;59.71
45872;BME280;32333;55.844;-3.210;2023-07-20T11:52:05;99392.98;;;18.35;59.25
45872;BME280;32333;55.844;-3.210;2023-07-20T11:54:34;99388.34;;;18.44;58.47
45872;BME280;32333;55.844;-3.210;2023-07-20T11:57:02;99386.66;;;17.76;60.95
45872;BME280;32333;55.844;-3.210;2023-07-20T11:59:31;99385.61;;;17.80;61.76
45872;BME280;32333;55.844;-3.210;2023-07-20T12:02:01;99384.65;;;18.18;60.48
45872;BME280;32333;55.844;-3.210;2023-07-20T12:04:31;99384.54;;;18.07;61.93
45872;BME280;32333;55.844;-3.210;2023-07-20T12:06:58;99380.56;;;18.41;56.21
45872;BME280;32333;55.844;-3.210;2023-07-20T12:09:26;99378.59;;;19.25;54.56
45872;BME280;32333;55.844;-3.210;2023-07-20T12:11:55;99380.54;;;18.67;55.33
45872;BME280;32333;55.844;-3.210;2023-07-20T12:14:35;99378.07;;;19.19;55.86
45872;BME280;32333;55.844;-3.210;2023-07-20T12:17:03;99372.68;;;18.90;58.47
45872;BME280;32333;55.844;-3.210;2023-07-20T12:19:31;99365.53;;;18.69;56.19
45872;BME280;32333;55.844;-3.210;2023-07-20T12:21:59;99363.34;;;18.60;58.40
45872;BME280;32333;55.844;-3.210;2023-07-20T12:24:29;99358.09;;;19.37;56.85
45872;BME280;32333;55.844;-3.210;2023-07-20T12:26:58;99360.14;;;19.34;58.84
45872;BME280;32333;55.844;-3.210;2023-07-20T12:29:26;99356.98;;;19.70;56.49
45872;BME280;32333;55.844;-3.210;2023-07-20T12:31:57;99361.90;;;17.24;64.31
45872;BME280;32333;55.844;-3.210;2023-07-20T12:34:26;99361.25;;;17.86;61.63
45872;BME280;32333;55.844;-3.210;2023-07-20T12:36:54;99360.91;;;17.68;61.77
45872;BME280;32333;55.844;-3.210;2023-07-20T12:39:23;99359.21;;;16.65;64.26
45872;BME280;32333;55.844;-3.210;2023-07-20T12:41:52;99356.56;;;17.34;62.51
45872;BME280;32333;55.844;-3.210;2023-07-20T12:44:35;99355.79;;;16.54;66.67
45872;BME280;32333;55.844;-3.210;2023-07-20T12:47:02;99352.79;;;17.87;63.96
45872;BME280;32333;55.844;-3.210;2023-07-20T12:49:30;99348.94;;;17.07;65.65
45872;BME280;32333;55.844;-3.210;2023-07-20T12:51:58;99345.65;;;16.66;66.03
45872;BME280;32333;55.844;-3.210;2023-07-20T12:54:26;99341.96;;;17.73;64.03
45872;BME280;32333;55.844;-3.210;2023-07-20T12:56:53;99347.09;;;18.63;60.91
45872;BME280;32333;55.844;-3.210;2023-07-20T12:59:21;99348.00;;;18.00;59.50
45872;BME280;32333;55.844;-3.210;2023-07-20T13:01:49;99343.19;;;18.35;60.53
45872;BME280;32333;55.844;-3.210;2023-07-20T13:04:18;99341.65;;;18.96;58.69
45872;BME280;32333;55.844;-3.210;2023-07-20T13:06:47;99342.37;;;18.91;58.17
45872;BME280;32333;55.844;-3.210;2023-07-20T13:09:15;99342.62;;;18.39;57.91
45872;BME280;32333;55.844;-3.210;2023-07-20T13:11:43;99344.39;;;18.47;57.35
45872;BME280;32333;55.844;-3.210;2023-07-20T13:14:37;99341.13;;;16.77;62.39
45872;BME280;32333;55.844;-3.210;2023-07-20T13:17:04;99333.55;;;19.28;57.13
45872;BME280;32333;55.844;-3.210;2023-07-20T13:19:34;99339.56;;;18.33;57.51
45872;BME280;32333;55.844;-3.210;2023-07-20T13:22:03;99338.50;;;18.45;58.34
45872;BME280;32333;55.844;-3.210;2023-07-20T13:24:32;99335.73;;;18.28;60.52
45872;BME280;32333;55.844;-3.210;2023-07-20T13:27:00;99325.30;;;19.09;57.45
45872;BME280;32333;55.844;-3.210;2023-07-20T13:29:29;99323.05;;;18.78;58.28
45872;BME280;32333;55.844;-3.210;2023-07-20T13:31:57;99328.73;;;19.07;57.53
45872;BME280;32333;55.844;-3.210;2023-07-20T13:34:26;99323.53;;;18.84;54.54
45872;BME280;32333;55.844;-3.210;2023-07-20T13:36:57;99323.52;;;19.24;52.31
45872;BME280;32333;55.844;-3.210;2023-07-20T13:39:26;99317.40;;;19.79;50.25
45872;BME280;32333;55.844;-3.210;2023-07-20T13:41:53;99318.05;;;19.06;51.37
45872;BME280;32333;55.844;-3.210;2023-07-20T13:44:35;99317.25;;;19.96;47.45
45872;BME280;32333;55.844;-3.210;2023-07-20T13:47:04;99321.55;;;18.47;51.85
45872;BME280;32333;55.844;-3.210;2023-07-20T13:49:32;99324.95;;;19.19;52.27